createdAt,value
2018-07-21T00:00:11.208Z,11.23
2018-07-21T00:02:40.624Z,11.40
2018-07-21T00:05:09.338Z,11.43
2018-07-21T00:07:37.959Z,11.00
2018-07-21T00:10:06.736Z,11.40
2018-07-21T00:12:35.349Z,11.73
2018-07-21T00:15:04.539Z,11.47
2018-07-21T00:17:33.179Z,11.90
2018-07-21T00:20:01.800Z,11.60
2018-07-21T00:22:30.434Z,10.97
2018-07-21T00:24:59.028Z,10.80
2018-07-21T00:27:27.648Z,11.43
2018-07-21T00:29:56.247Z,10.57
2018-07-21T00:32:24.857Z,11.13
2018-07-21T00:34:53.586Z,10.47
2018-07-21T00:37:23.767Z,11.40
2018-07-21T00:39:53.092Z,11.00
2018-07-21T00:42:21.753Z,10.17
2018-07-21T00:44:50.620Z,11.43
2018-07-21T00:47:20.183Z,10.30
2018-07-21T00:49:48.910Z,11.70
2018-07-21T00:52:17.480Z,11.30
2018-07-21T00:54:46.248Z,11.40
2018-07-21T00:57:14.913Z,10.60
2018-07-21T00:59:43.949Z,10.67
2018-07-21T01:02:13.144Z,10.60
2018-07-21T01:04:41.752Z,10.83
2018-07-21T01:07:10.342Z,11.00
2018-07-21T01:09:38.977Z,10.73
2018-07-21T01:12:07.713Z,10.70
2018-07-21T01:14:36.362Z,10.20
2018-07-21T01:17:04.985Z,10.30
2018-07-21T01:19:33.690Z,10.50
2018-07-21T01:22:02.487Z,10.73
2018-07-21T01:24:31.109Z,10.93
2018-07-21T01:26:59.728Z,10.90
2018-07-21T01:29:28.302Z,11.10
2018-07-21T01:31:56.889Z,12.40
2018-07-21T01:34:25.874Z,11.47
2018-07-21T01:36:54.835Z,11.67
2018-07-21T01:39:23.388Z,11.97
2018-07-21T01:41:52.075Z,12.63
2018-07-21T01:44:20.651Z,11.83
2018-07-21T01:46:49.318Z,12.77
2018-07-21T01:49:17.926Z,12.87
2018-07-21T01:51:46.451Z,12.70
2018-07-21T01:54:15.101Z,11.50
2018-07-21T01:56:43.666Z,11.63
2018-07-21T01:59:12.287Z,12.50
2018-07-21T02:01:40.913Z,11.90
2018-07-21T02:04:09.506Z,12.47
2018-07-21T02:06:38.191Z,12.37
2018-07-21T02:09:08.671Z,11.57
2018-07-21T02:11:37.259Z,11.40
2018-07-21T02:14:05.910Z,11.43
2018-07-21T02:16:34.643Z,10.60
2018-07-21T02:19:03.519Z,11.40
2018-07-21T02:21:32.135Z,10.90
2018-07-21T02:24:00.692Z,10.80
2018-07-21T02:26:29.651Z,9.73
2018-07-21T02:28:58.240Z,10.40
2018-07-21T02:31:26.893Z,9.83
2018-07-21T02:33:55.487Z,10.30
2018-07-21T02:36:24.470Z,10.50
2018-07-21T02:38:53.041Z,10.87
2018-07-21T02:41:21.861Z,10.90
2018-07-21T02:43:50.423Z,10.70
2018-07-21T02:46:19.778Z,12.70
2018-07-21T02:48:48.369Z,12.57
2018-07-21T02:51:16.991Z,12.67
2018-07-21T02:53:45.756Z,11.97
2018-07-21T02:56:14.430Z,11.70
2018-07-21T02:58:42.986Z,11.73
2018-07-21T03:01:11.888Z,11.77
2018-07-21T03:03:40.488Z,12.27
2018-07-21T03:06:09.144Z,11.93
2018-07-21T03:08:37.736Z,11.93
2018-07-21T03:11:06.509Z,12.23
2018-07-21T03:13:35.123Z,11.27
2018-07-21T03:16:04.581Z,11.57
2018-07-21T03:18:33.267Z,11.20
2018-07-21T03:21:01.941Z,10.80
2018-07-21T03:23:31.028Z,11.20
2018-07-21T03:25:59.662Z,11.07
2018-07-21T03:28:28.355Z,10.63
2018-07-21T03:30:57.027Z,10.47
2018-07-21T03:33:25.650Z,9.80
2018-07-21T03:35:54.367Z,10.00
2018-07-21T03:38:22.953Z,9.93
2018-07-21T03:40:51.814Z,10.17
2018-07-21T03:43:21.039Z,9.97
2018-07-21T03:45:50.368Z,9.50
2018-07-21T03:48:18.958Z,9.43
2018-07-21T03:50:47.555Z,9.70
2018-07-21T03:53:16.168Z,8.90
2018-07-21T03:55:45.525Z,9.13
2018-07-21T03:58:14.162Z,9.17
2018-07-21T04:00:42.748Z,8.80
2018-07-21T04:03:11.521Z,8.90
2018-07-21T04:05:40.266Z,8.57
2018-07-21T04:08:08.904Z,9.10
2018-07-21T04:10:37.737Z,8.90
2018-07-21T04:13:07.160Z,8.60
2018-07-21T04:15:35.868Z,9.80
2018-07-21T04:18:05.094Z,8.90
2018-07-21T04:20:33.711Z,9.10
2018-07-21T04:23:02.376Z,9.80
2018-07-21T04:25:30.991Z,8.90
2018-07-21T04:27:59.579Z,9.13
2018-07-21T04:30:28.200Z,9.00
2018-07-21T04:32:56.768Z,8.80
2018-07-21T04:35:25.352Z,9.40
2018-07-21T04:37:53.957Z,8.70
2018-07-21T04:40:22.610Z,9.23
2018-07-21T04:42:51.223Z,8.60
2018-07-21T04:45:19.789Z,8.83
2018-07-21T04:47:48.406Z,8.90
2018-07-21T04:50:21.497Z,9.30
2018-07-21T04:52:50.176Z,8.40
2018-07-21T04:55:19.092Z,8.67
2018-07-21T04:57:47.846Z,8.30
2018-07-21T05:00:16.489Z,8.10
2018-07-21T05:02:45.095Z,7.63
2018-07-21T05:05:13.955Z,8.00
2018-07-21T05:07:43.628Z,8.20
2018-07-21T05:10:12.370Z,7.90
2018-07-21T05:12:40.927Z,8.80
2018-07-21T05:15:09.608Z,7.50
2018-07-21T05:17:38.249Z,8.10
2018-07-21T05:20:07.443Z,7.70
2018-07-21T05:22:36.068Z,7.63
2018-07-21T05:25:05.286Z,7.13
2018-07-21T05:27:33.883Z,8.20
2018-07-21T05:30:02.528Z,7.30
2018-07-21T05:32:31.155Z,7.90
2018-07-21T05:34:59.716Z,7.20
2018-07-21T05:37:28.368Z,7.17
2018-07-21T05:39:57.002Z,6.63
2018-07-21T05:42:25.656Z,8.80
2018-07-21T05:44:55.125Z,7.80
2018-07-21T05:47:23.873Z,7.30
2018-07-21T05:49:52.519Z,7.00
2018-07-21T05:52:21.212Z,7.17
2018-07-21T05:54:49.906Z,7.80
2018-07-21T05:57:18.508Z,6.50
2018-07-21T05:59:47.328Z,7.87
2018-07-21T06:02:16.694Z,7.30
2018-07-21T06:04:45.748Z,7.77
2018-07-21T06:07:14.369Z,7.90
2018-07-21T06:09:43.004Z,7.30
2018-07-21T06:12:11.719Z,7.50
2018-07-21T06:14:40.373Z,7.60
2018-07-21T06:17:09.088Z,7.50
2018-07-21T06:19:37.648Z,7.13
2018-07-21T06:22:06.334Z,7.33
2018-07-21T06:24:34.947Z,7.67
2018-07-21T06:27:04.311Z,7.40
2018-07-21T06:29:32.865Z,8.10
2018-07-21T06:32:01.459Z,8.00
2018-07-21T06:34:30.064Z,7.20
2018-07-21T06:36:58.657Z,7.63
2018-07-21T06:39:27.292Z,7.77
2018-07-21T06:41:55.904Z,6.90
2018-07-21T06:44:25.208Z,8.00
2018-07-21T06:46:53.898Z,7.20
2018-07-21T06:49:22.570Z,7.47
2018-07-21T06:51:51.185Z,6.93
2018-07-21T06:54:19.822Z,7.20
2018-07-21T06:56:48.516Z,7.47
2018-07-21T06:59:17.171Z,7.60
2018-07-21T07:01:45.755Z,7.13
2018-07-21T07:04:14.513Z,7.40
2018-07-21T07:06:43.209Z,7.13
2018-07-21T07:09:12.395Z,7.80
2018-07-21T07:11:41.248Z,7.57
2018-07-21T07:14:09.895Z,7.53
2018-07-21T07:16:38.570Z,8.27
2018-07-21T07:19:07.176Z,7.50
2018-07-21T07:21:35.853Z,7.67
2018-07-21T07:24:04.710Z,7.57
2018-07-21T07:26:33.924Z,8.50
2018-07-21T07:29:03.162Z,7.93
2018-07-21T07:31:32.544Z,7.67
2018-07-21T07:34:01.257Z,8.50
2018-07-21T07:36:29.903Z,7.73
2018-07-21T07:38:59.083Z,8.43
2018-07-21T07:41:28.343Z,8.37
2018-07-21T07:43:56.944Z,7.43
2018-07-21T07:46:25.695Z,7.73
2018-07-21T07:48:55.044Z,8.30
2018-07-21T07:51:24.270Z,8.87
2018-07-21T07:53:52.884Z,8.90
2018-07-21T07:56:21.515Z,7.83
2018-07-21T07:58:50.270Z,8.23
2018-07-21T08:01:18.966Z,9.00
2018-07-21T08:03:47.652Z,8.37
2018-07-21T08:06:16.311Z,8.37
2018-07-21T08:08:44.908Z,8.67
2018-07-21T08:11:14.079Z,8.87
2018-07-21T08:13:42.721Z,8.40
2018-07-21T08:16:11.325Z,8.47
2018-07-21T08:18:40.006Z,8.83
2018-07-21T08:21:09.252Z,8.37
2018-07-21T08:23:37.971Z,8.83
2018-07-21T08:26:06.753Z,9.73
2018-07-21T08:28:35.416Z,9.10
2018-07-21T08:31:04.141Z,9.03
2018-07-21T08:33:32.800Z,10.27
2018-07-21T08:36:01.694Z,9.47
2018-07-21T08:38:30.566Z,10.00
2018-07-21T08:40:59.225Z,9.60
2018-07-21T08:43:27.925Z,10.70
2018-07-21T08:45:56.578Z,10.30
2018-07-21T08:48:25.187Z,12.13
2018-07-21T08:50:53.860Z,9.97
2018-07-21T08:53:22.523Z,11.93
2018-07-21T08:55:51.195Z,10.23
2018-07-21T08:58:21.253Z,10.30
2018-07-21T09:00:49.943Z,10.53
2018-07-21T09:03:18.668Z,10.23
2018-07-21T09:05:47.308Z,9.60
2018-07-21T09:08:15.939Z,11.00
2018-07-21T09:10:44.506Z,11.27
2018-07-21T09:13:13.231Z,10.90
2018-07-21T09:15:41.856Z,11.70
2018-07-21T09:18:10.455Z,11.00
2018-07-21T09:20:39.260Z,11.60
2018-07-21T09:23:07.876Z,11.87
2018-07-21T09:25:37.128Z,9.83
2018-07-21T09:28:06.828Z,10.40
2018-07-21T09:30:36.347Z,9.27
2018-07-21T09:33:05.053Z,9.70
2018-07-21T09:35:33.786Z,9.77
2018-07-21T09:38:02.450Z,10.90
2018-07-21T09:40:31.806Z,10.20
2018-07-21T09:43:00.450Z,10.77
2018-07-21T09:45:30.278Z,10.13
2018-07-21T09:47:59.025Z,11.40
2018-07-21T09:50:27.658Z,11.00
2018-07-21T09:52:56.308Z,11.20
2018-07-21T09:55:24.950Z,10.40
2018-07-21T09:57:54.373Z,9.97
2018-07-21T10:00:28.219Z,10.80
2018-07-21T10:02:57.268Z,11.27
2018-07-21T10:05:26.082Z,11.40
2018-07-21T10:07:54.790Z,11.57
2018-07-21T10:10:24.552Z,10.73
2018-07-21T10:12:54.196Z,12.30
2018-07-21T10:15:26.401Z,11.93
2018-07-21T10:17:55.291Z,12.13
2018-07-21T10:20:23.970Z,11.50
2018-07-21T10:22:53.097Z,10.67
2018-07-21T10:25:27.078Z,11.80
2018-07-21T10:28:00.938Z,11.70
2018-07-21T10:30:29.750Z,12.50
2018-07-21T10:32:58.476Z,11.87
2018-07-21T10:35:27.228Z,12.50
2018-07-21T10:37:55.872Z,11.30
2018-07-21T10:40:25.242Z,11.47
2018-07-21T10:42:54.518Z,11.23
2018-07-21T10:45:24.074Z,12.13
2018-07-21T10:47:52.831Z,12.23
2018-07-21T10:50:21.721Z,12.03
2018-07-21T10:52:52.655Z,12.17
2018-07-21T10:55:21.653Z,12.30
2018-07-21T10:57:50.507Z,12.30
2018-07-21T11:00:19.609Z,11.00
2018-07-21T11:02:49.172Z,11.73
2018-07-21T11:05:18.028Z,12.43
2018-07-21T11:07:46.876Z,12.13
2018-07-21T11:10:15.537Z,13.70
2018-07-21T11:12:44.839Z,11.23
2018-07-21T11:15:14.636Z,10.90
2018-07-21T11:17:43.290Z,10.53
2018-07-21T11:20:12.306Z,12.03
2018-07-21T11:22:41.295Z,10.70
2018-07-21T11:25:11.205Z,11.40
2018-07-21T11:27:40.021Z,10.97
2018-07-21T11:30:08.731Z,11.20
2018-07-21T11:32:38.074Z,10.60
2018-07-21T11:35:07.564Z,9.57
2018-07-21T11:37:36.236Z,9.43
2018-07-21T11:40:05.109Z,9.87
2018-07-21T11:42:34.174Z,9.43
2018-07-21T11:45:02.844Z,9.67
2018-07-21T11:47:31.605Z,9.77
2018-07-21T11:50:00.307Z,10.50
2018-07-21T11:52:28.987Z,10.70
2018-07-21T11:54:57.809Z,11.40
2018-07-21T11:57:26.544Z,11.60
2018-07-21T11:59:55.346Z,12.37
2018-07-21T12:02:24.814Z,11.50
2018-07-21T12:04:53.764Z,12.07
2018-07-21T12:07:22.537Z,12.10
2018-07-21T12:09:51.472Z,11.27
2018-07-21T12:12:20.149Z,12.17
2018-07-21T12:14:49.006Z,12.00
2018-07-21T12:17:17.734Z,12.97
2018-07-21T12:19:46.743Z,12.80
2018-07-21T12:22:15.488Z,11.90
2018-07-21T12:24:44.144Z,11.10
2018-07-21T12:27:13.459Z,10.40
2018-07-21T12:29:42.487Z,10.67
2018-07-21T12:32:11.339Z,9.77
2018-07-21T12:34:40.063Z,9.77
2018-07-21T12:37:08.873Z,9.33
2018-07-21T12:39:37.548Z,9.43
2018-07-21T12:42:09.022Z,9.27
2018-07-21T12:44:38.015Z,8.77
2018-07-21T12:47:07.767Z,9.50
2018-07-21T12:49:36.518Z,9.40
2018-07-21T12:52:05.404Z,8.77
2018-07-21T12:54:34.401Z,9.20
2018-07-21T12:57:04.333Z,9.30
2018-07-21T12:59:33.130Z,9.70
2018-07-21T13:02:01.877Z,8.37
2018-07-21T13:04:36.991Z,8.43
2018-07-21T13:07:05.776Z,8.67
2018-07-21T13:09:35.153Z,8.47
2018-07-21T13:12:03.940Z,7.80
2018-07-21T13:14:32.659Z,7.87
2018-07-21T13:17:01.331Z,7.47
2018-07-21T13:19:30.075Z,8.00
2018-07-21T13:21:59.023Z,7.67
2018-07-21T13:24:27.742Z,8.80
2018-07-21T13:26:56.502Z,7.50
2018-07-21T13:29:25.205Z,8.10
2018-07-21T13:31:53.925Z,8.23
2018-07-21T13:34:22.521Z,7.50
2018-07-21T13:36:51.251Z,8.23
2018-07-21T13:39:20.038Z,8.03
2018-07-21T13:41:48.922Z,8.60
2018-07-21T13:44:17.692Z,11.40
2018-07-21T13:46:46.320Z,13.10
2018-07-21T13:49:15.788Z,11.47
2018-07-21T13:51:44.499Z,18.37
2018-07-21T13:54:13.180Z,12.70
2018-07-21T13:56:41.897Z,24.60
2018-07-21T13:59:10.834Z,8.87
2018-07-21T14:01:39.512Z,9.10
2018-07-21T14:04:08.324Z,9.27
2018-07-21T14:06:37.030Z,11.50
2018-07-21T14:09:07.801Z,7.83
2018-07-21T14:11:37.470Z,7.60
2018-07-21T14:14:06.468Z,7.37
2018-07-21T14:16:35.341Z,8.63
2018-07-21T14:19:04.082Z,7.00
2018-07-21T14:21:32.831Z,7.57
2018-07-21T14:24:01.542Z,9.00
2018-07-21T14:26:30.529Z,8.73
2018-07-21T14:28:59.299Z,8.03
2018-07-21T14:31:27.989Z,9.90
2018-07-21T14:33:56.741Z,8.37
2018-07-21T14:36:25.578Z,7.30
2018-07-21T14:38:56.268Z,7.40
2018-07-21T14:41:24.979Z,8.40
2018-07-21T14:43:53.795Z,7.40
2018-07-21T14:46:23.288Z,6.73
2018-07-21T14:48:52.595Z,6.50
2018-07-21T14:51:21.771Z,5.90
2018-07-21T14:53:50.445Z,6.50
2018-07-21T14:56:19.290Z,6.47
2018-07-21T14:58:47.940Z,6.30
2018-07-21T15:01:16.858Z,6.90
2018-07-21T15:03:45.762Z,7.80
2018-07-21T15:06:15.139Z,9.10
2018-07-21T15:08:45.753Z,8.53
2018-07-21T15:11:21.776Z,8.83
2018-07-21T15:13:50.504Z,8.30
2018-07-21T15:16:19.273Z,8.93
2018-07-21T15:18:48.140Z,8.17
2018-07-21T15:21:17.539Z,8.30
2018-07-21T15:23:46.229Z,8.40
2018-07-21T15:26:14.963Z,8.33
2018-07-21T15:28:43.611Z,7.80
2018-07-21T15:31:12.306Z,7.80
2018-07-21T15:33:40.930Z,7.00
2018-07-21T15:36:09.577Z,7.00
2018-07-21T15:38:38.339Z,6.80
2018-07-21T15:41:07.082Z,6.53
2018-07-21T15:43:35.768Z,6.70
2018-07-21T15:46:04.630Z,6.70
2018-07-21T15:48:33.360Z,6.70
2018-07-21T15:51:02.104Z,8.07
2018-07-21T15:53:30.877Z,7.37
2018-07-21T15:55:59.545Z,6.87
2018-07-21T15:58:28.147Z,6.27
2018-07-21T16:00:56.934Z,6.50
2018-07-21T16:03:25.694Z,7.67
2018-07-21T16:05:54.900Z,8.67
2018-07-21T16:08:24.290Z,8.10
2018-07-21T16:10:53.343Z,8.63
2018-07-21T16:13:22.042Z,8.47
2018-07-21T16:15:50.761Z,8.77
2018-07-21T16:18:19.615Z,8.03
2018-07-21T16:20:48.363Z,8.90
2018-07-21T16:23:17.166Z,9.93
2018-07-21T16:25:46.252Z,9.00
2018-07-21T16:28:14.999Z,9.50
2018-07-21T16:30:44.389Z,10.00
2018-07-21T16:33:13.064Z,10.43
2018-07-21T16:35:41.663Z,10.80
2018-07-21T16:38:10.449Z,10.20
2018-07-21T16:40:39.136Z,9.87
2018-07-21T16:43:08.584Z,10.07
2018-07-21T16:45:37.259Z,9.20
2018-07-21T16:48:06.263Z,9.73
2018-07-21T16:50:34.964Z,8.97
2018-07-21T16:53:03.588Z,9.50
2018-07-21T16:55:32.233Z,8.63
2018-07-21T16:58:00.913Z,9.07
2018-07-21T17:00:30.087Z,8.63
2018-07-21T17:02:58.721Z,7.73
2018-07-21T17:05:27.564Z,8.20
2018-07-21T17:07:56.971Z,7.80
2018-07-21T17:10:25.923Z,7.80
2018-07-21T17:12:54.669Z,7.97
2018-07-21T17:15:23.551Z,9.43
2018-07-21T17:17:52.205Z,7.87
2018-07-21T17:20:21.151Z,7.83
2018-07-21T17:22:49.926Z,7.77
2018-07-21T17:25:18.614Z,6.73
2018-07-21T17:27:47.344Z,7.37
2018-07-21T17:30:16.039Z,7.80
2018-07-21T17:32:44.700Z,7.53
2018-07-21T17:35:13.517Z,7.03
2018-07-21T17:37:42.241Z,7.70
2018-07-21T17:40:11.013Z,7.07
2018-07-21T17:42:40.547Z,7.47
2018-07-21T17:45:09.413Z,6.07
2018-07-21T17:47:38.840Z,5.80
2018-07-21T17:50:07.491Z,5.90
2018-07-21T17:52:36.194Z,6.93
2018-07-21T17:55:06.154Z,6.77
2018-07-21T17:57:35.136Z,6.93
2018-07-21T18:00:03.988Z,7.60
2018-07-21T18:02:33.281Z,6.63
2018-07-21T18:05:01.928Z,7.70
2018-07-21T18:07:30.764Z,7.70
2018-07-21T18:09:59.821Z,8.13
2018-07-21T18:12:29.051Z,7.50
2018-07-21T18:14:57.737Z,7.90
2018-07-21T18:17:26.572Z,8.43
2018-07-21T18:19:55.295Z,7.50
2018-07-21T18:22:23.944Z,8.17
2018-07-21T18:24:52.862Z,7.53
2018-07-21T18:27:21.480Z,7.87
2018-07-21T18:29:50.214Z,7.93
2018-07-21T18:32:19.004Z,6.90
2018-07-21T18:34:48.615Z,7.73
2018-07-21T18:37:17.209Z,7.00
2018-07-21T18:39:45.925Z,7.43
2018-07-21T18:42:14.587Z,7.93
2018-07-21T18:44:43.283Z,7.90
2018-07-21T18:47:12.111Z,8.70
2018-07-21T18:49:40.795Z,13.47
2018-07-21T18:52:09.510Z,10.00
2018-07-21T18:54:38.130Z,9.70
2018-07-21T18:57:06.804Z,10.53
2018-07-21T18:59:35.622Z,10.47
2018-07-21T19:02:04.266Z,12.07
2018-07-21T19:04:33.032Z,11.20
2018-07-21T19:07:01.678Z,14.10
2018-07-21T19:09:30.499Z,12.47
2018-07-21T19:12:04.413Z,10.40
2018-07-21T19:14:33.120Z,11.60
2018-07-21T19:17:01.922Z,10.90
2018-07-21T19:19:35.984Z,11.30
2018-07-21T19:22:05.398Z,9.90
2018-07-21T19:24:34.335Z,10.03
2018-07-21T19:27:08.396Z,10.30
2018-07-21T19:29:37.177Z,11.07
2018-07-21T19:32:11.331Z,8.63
2018-07-21T19:34:40.352Z,9.40
2018-07-21T19:37:15.069Z,8.90
2018-07-21T19:39:44.122Z,7.40
2018-07-21T19:42:12.808Z,7.77
2018-07-21T19:44:41.694Z,7.20
2018-07-21T19:47:10.583Z,8.30
2018-07-21T19:49:39.228Z,7.40
2018-07-21T19:52:08.044Z,5.80
2018-07-21T19:54:36.839Z,6.00
2018-07-21T19:57:05.602Z,5.80
2018-07-21T19:59:34.915Z,5.83
2018-07-21T20:02:03.934Z,6.70
2018-07-21T20:04:32.605Z,5.70
2018-07-21T20:07:01.342Z,6.10
2018-07-21T20:09:30.079Z,6.30
2018-07-21T20:11:58.802Z,5.77
2018-07-21T20:14:27.463Z,6.30
2018-07-21T20:16:56.143Z,6.40
2018-07-21T20:19:24.808Z,6.50
2018-07-21T20:21:54.174Z,6.07
2018-07-21T20:24:23.091Z,5.87
2018-07-21T20:26:51.744Z,5.63
2018-07-21T20:29:23.549Z,6.17
2018-07-21T20:31:52.281Z,6.03
2018-07-21T20:34:20.897Z,5.80
2018-07-21T20:36:49.842Z,5.70
2018-07-21T20:39:18.571Z,5.93
2018-07-21T20:41:48.039Z,6.13
2018-07-21T20:44:16.713Z,5.83
2018-07-21T20:46:45.929Z,5.10
2018-07-21T20:49:14.612Z,6.10
2018-07-21T20:51:43.886Z,5.60
2018-07-21T20:54:12.617Z,5.67
2018-07-21T20:56:41.626Z,6.30
2018-07-21T20:59:10.466Z,5.50
2018-07-21T21:01:40.136Z,6.00
2018-07-21T21:04:08.940Z,5.63
2018-07-21T21:06:37.607Z,5.90
2018-07-21T21:09:08.601Z,6.03
2018-07-21T21:11:37.400Z,5.27
2018-07-21T21:14:06.125Z,5.87
2018-07-21T21:16:34.794Z,6.17
2018-07-21T21:19:03.565Z,5.90
2018-07-21T21:21:32.289Z,6.60
2018-07-21T21:24:01.823Z,5.30
2018-07-21T21:26:30.472Z,6.53
2018-07-21T21:28:59.206Z,6.13
2018-07-21T21:31:27.933Z,5.83
2018-07-21T21:33:56.928Z,7.20
2018-07-21T21:36:25.621Z,6.97
2018-07-21T21:38:54.287Z,6.93
2018-07-21T21:41:23.711Z,6.43
2018-07-21T21:43:52.441Z,6.27
2018-07-21T21:46:23.083Z,5.90
2018-07-21T21:48:55.643Z,6.73
2018-07-21T21:51:26.293Z,6.70
2018-07-21T21:53:57.437Z,6.60
2018-07-21T21:56:28.633Z,8.10
2018-07-21T21:59:00.893Z,7.60
2018-07-21T22:01:32.636Z,7.00
2018-07-21T22:04:03.325Z,7.13
2018-07-21T22:06:35.045Z,7.73
2018-07-21T22:09:11.025Z,7.43
2018-07-21T22:11:40.672Z,8.07
2018-07-21T22:14:11.046Z,6.80
2018-07-21T22:16:40.103Z,7.97
2018-07-21T22:19:09.160Z,7.30
2018-07-21T22:21:37.850Z,6.53
2018-07-21T22:24:06.863Z,7.00
2018-07-21T22:26:35.595Z,7.17
2018-07-21T22:29:04.280Z,7.57
2018-07-21T22:31:33.627Z,7.93
2018-07-21T22:34:02.478Z,7.40
2018-07-21T22:36:32.198Z,7.20
2018-07-21T22:39:01.069Z,7.47
2018-07-21T22:41:29.897Z,8.30
2018-07-21T22:43:59.144Z,7.33
2018-07-21T22:46:27.940Z,7.97
2018-07-21T22:48:57.053Z,7.27
2018-07-21T22:51:25.703Z,7.40
2018-07-21T22:53:54.539Z,8.20
2018-07-21T22:56:23.158Z,7.27
2018-07-21T22:58:51.854Z,8.00
2018-07-21T23:01:21.283Z,8.60
2018-07-21T23:03:50.727Z,8.30
2018-07-21T23:06:19.716Z,8.20
2018-07-21T23:08:48.938Z,9.20
2018-07-21T23:11:18.232Z,8.20
2018-07-21T23:13:46.883Z,7.57
2018-07-21T23:16:15.922Z,8.50
2018-07-21T23:18:44.735Z,8.00
2018-07-21T23:21:13.392Z,8.70
2018-07-21T23:23:42.093Z,8.53
2018-07-21T23:26:10.736Z,8.23
2018-07-21T23:28:39.491Z,8.07
2018-07-21T23:31:08.528Z,7.60
2018-07-21T23:33:37.150Z,8.43
2018-07-21T23:36:06.405Z,8.10
2018-07-21T23:38:35.786Z,8.07
2018-07-21T23:41:04.449Z,8.20
2018-07-21T23:43:33.031Z,8.70
2018-07-21T23:46:02.159Z,8.53
2018-07-21T23:48:30.849Z,9.77
2018-07-21T23:51:00.311Z,9.00
2018-07-21T23:53:29.051Z,8.93
2018-07-21T23:55:58.248Z,8.90
2018-07-21T23:58:26.898Z,9.93
